首页
METAR-TAF:

METAR-TAF

机场 :

莱镇, 印度

纬度: 34-08-09N, 经度: 077-32-47E, 海拔: 3256米

当前天气观测

该预报发布于33分钟前的20:30 UTC
风速4节,风向西转西北
温度
气压 1026 hPa
能見度: 6000
少量云层高于7000英尺
散云层高于15000英尺

METAR: VILH 192030Z 30004KT 6000 FEW070 SCT150 11/-1 Q1026 NOSIG

时间: 02:33 (21:03 UTC)

预报

该预报发布于11小时和33分钟前的09:30 UTC
预报有效从19日的 18点(UTC)到 20日的 12点(UTC)
风速10节,风向西北
能見度: 6000
少量云层高于7000英尺
散云层高于15000英尺
成为
从 20日的 00点(UTC)到 20日的 03点(UTC)
风速2节,风向多变
能見度: 6000
少量云层高于7000英尺
散云层高于15000英尺
短暂存在
从 20日的 09点(UTC)到 20日的 12点(UTC)
风速20节,风向西转西北,有时为30节阵风

TAF: VILH 190930Z 1918/2012 32010KT 6000 FEW070 SCT150 BECMG 2000/2003 VRB02KT 6000 FEW070 SCT150 TEMPO 2009/2012 29020G30KT

超过4000个机场的气象观测和天气预报(METAR&TAF报告)。

可查询的气象台以黄色和红色小点在地图上表示。

将鼠标移到小点上方,可查看气象台名称。

然后点击查看天气观测和预报。

如需切换地图:点击带黑十字的绿色按钮放大地图;点击带横线的绿色按钮缩小地图;或者点击绿色箭头查看邻近地区的地图。


METAR-TAF: